Time;durP1;ratioP1;P1;durP2;ratioP2;P2;SDS_P1;SDS_P2;PMS_P1;PMS_P2;Temp;Humidity;BMP_temperature;BMP_pressure;BME280_temperature;BME280_humidity;BME280_pressure;Samples;Min_cycle;Max_cycle;Signal;HPM_P1;HPM_P2
2022/08/06 00:00:42;;;;;;;6.93;3.80;;;;;;;11.42;85.96;102431.88;5067749;28;20089;-84
2022/08/06 00:03:08;;;;;;;6.43;3.50;;;;;;;11.43;86.34;102428.16;5066409;28;20040;-84
2022/08/06 00:05:33;;;;;;;6.77;3.33;;;;;;;11.29;86.27;102419.75;5067511;28;20479;-84
2022/08/06 00:07:59;;;;;;;8.83;3.40;;;;;;;11.29;86.14;102432.47;5066135;28;20105;-85
2022/08/06 00:10:25;;;;;;;9.43;3.50;;;;;;;11.27;86.55;102429.94;5067115;28;20114;-84
2022/08/06 00:12:51;;;;;;;6.77;3.33;;;;;;;11.22;86.56;102431.47;5067285;28;20131;-84
2022/08/06 00:15:17;;;;;;;9.00;3.33;;;;;;;11.27;87.02;102442.66;5067319;28;20399;-85
2022/08/06 00:17:44;;;;;;;6.17;3.27;;;;;;;11.23;87.29;102444.03;5067398;28;20428;-85
2022/08/06 00:20:11;;;;;;;4.93;3.30;;;;;;;11.24;87.64;102438.41;5064699;28;20429;-85
2022/08/06 00:22:37;;;;;;;6.53;3.30;;;;;;;11.27;87.83;102442.66;5066930;28;20120;-83
2022/08/06 00:25:03;;;;;;;7.17;3.60;;;;;;;11.26;87.79;102449.94;5064537;28;20473;-84
2022/08/06 00:27:28;;;;;;;6.93;3.27;;;;;;;11.22;87.67;102451.31;5067072;28;20086;-83
2022/08/06 00:30:19;;;;;;;9.03;3.73;;;;;;;11.29;88.18;102452.31;5064501;28;20044;-84
2022/08/06 00:32:44;;;;;;;7.90;3.50;;;;;;;11.27;87.93;102454.38;5066866;28;20075;-84
2022/08/06 00:35:10;;;;;;;5.90;3.63;;;;;;;11.25;88.12;102455.56;5064815;28;20044;-83
2022/08/06 00:37:36;;;;;;;7.37;3.80;;;;;;;11.16;88.18;102441.16;5065746;28;20040;-84
2022/08/06 00:40:02;;;;;;;6.40;3.87;;;;;;;11.13;88.05;102446.97;5066047;28;20048;-85
2022/08/06 00:42:28;;;;;;;10.47;3.90;;;;;;;11.19;88.28;102458.97;5067402;28;20560;-85
2022/08/06 00:44:53;;;;;;;6.77;3.90;;;;;;;11.20;88.00;102461.50;5066518;28;20042;-84
2022/08/06 00:47:19;;;;;;;7.13;3.80;;;;;;;11.29;87.50;102463.16;5065745;28;20033;-84
2022/08/06 00:49:44;;;;;;;7.90;4.00;;;;;;;11.28;87.33;102466.06;5065898;28;20043;-85
2022/08/06 00:52:09;;;;;;;8.23;4.07;;;;;;;11.28;86.95;102458.75;5066264;28;20040;-84
2022/08/06 00:54:35;;;;;;;5.70;3.53;;;;;;;11.18;86.81;102458.13;5064590;28;20032;-84
2022/08/06 00:57:00;;;;;;;6.83;3.57;;;;;;;11.08;86.94;102452.06;5065208;28;20092;-84
2022/08/06 00:59:26;;;;;;;9.00;3.70;;;;;;;11.18;86.97;102463.56;5064589;28;20039;-85
2022/08/06 01:01:51;;;;;;;8.67;3.90;;;;;;;11.15;87.06;102467.47;5065250;28;20281;-84
2022/08/06 01:04:18;;;;;;;7.80;3.90;;;;;;;11.15;87.38;102472.03;5064543;28;20038;-84
2022/08/06 01:06:43;;;;;;;7.57;3.80;;;;;;;11.19;87.06;102481.50;5066360;28;20044;-83
2022/08/06 01:09:09;;;;;;;7.17;3.53;;;;;;;11.23;86.57;102469.31;5064732;28;20036;-84
2022/08/06 01:11:34;;;;;;;6.73;3.33;;;;;;;11.24;86.02;102476.41;5064495;28;20048;-84
2022/08/06 01:14:00;;;;;;;8.73;3.80;;;;;;;11.08;86.19;102479.19;5065795;28;20041;-84
2022/08/06 01:16:33;;;;;;;6.60;3.80;;;;;;;11.04;86.61;102484.09;5066133;28;20040;-84
2022/08/06 01:19:17;;;;;;;6.80;3.92;;;;;;;11.03;86.89;102489.69;5066466;28;20042;-84
2022/08/06 01:22:08;;;;;;;7.57;3.70;;;;;;;10.89;87.45;102492.16;5064060;28;20357;-84
2022/08/06 01:24:56;;;;;;;6.17;3.70;;;;;;;10.86;87.99;102491.63;5044445;28;20047;-86
2022/08/06 01:27:37;;;;;;;9.53;3.90;;;;;;;10.85;88.05;102492.66;5065142;28;20077;-84
2022/08/06 01:30:27;;;;;;;8.77;3.70;;;;;;;10.84;87.90;102491.81;5064653;28;20059;-84
2022/08/06 01:33:01;;;;;;;4.17;3.77;;;;;;;10.76;87.68;102497.25;5065851;28;20276;-84
2022/08/06 01:35:34;;;;;;;9.38;3.95;;;;;;;10.80;87.78;102494.00;5063381;28;20039;-85
2022/08/06 01:38:06;;;;;;;7.35;3.78;;;;;;;10.74;87.90;102505.56;5066352;28;20361;-84
2022/08/06 01:40:35;;;;;;;4.97;3.60;;;;;;;10.71;87.98;102505.06;5065171;28;20155;-85
2022/08/06 01:43:05;;;;;;;8.73;4.10;;;;;;;10.76;87.59;102510.81;5065416;28;20391;-84
2022/08/06 01:45:33;;;;;;;7.20;3.67;;;;;;;10.77;87.17;102507.06;5063842;28;20036;-84
2022/08/06 01:48:02;;;;;;;10.80;4.07;;;;;;;10.71;87.43;102499.63;5065998;28;20028;-84
2022/08/06 01:50:39;;;;;;;10.17;3.87;;;;;;;10.59;87.63;102508.13;5063104;28;20485;-84
2022/08/06 01:53:07;;;;;;;8.10;4.00;;;;;;;10.59;88.15;102502.72;5065384;28;21343;-84
2022/08/06 01:55:41;;;;;;;6.43;3.53;;;;;;;10.54;88.37;102504.22;5065272;28;20378;-85
2022/08/06 01:58:07;;;;;;;5.22;3.88;;;;;;;10.59;88.18;102505.41;5065543;28;20366;-84
2022/08/06 02:00:38;;;;;;;8.87;3.73;;;;;;;10.57;87.96;102499.31;5063737;28;20047;-84
2022/08/06 02:03:10;;;;;;;8.07;3.67;;;;;;;10.60;87.74;102503.53;5065394;28;20081;-85
2022/08/06 02:05:38;;;;;;;5.50;4.00;;;;;;;10.42;87.61;102496.44;5063029;28;20527;-84
2022/08/06 02:08:05;;;;;;;9.33;3.87;;;;;;;10.36;88.26;102486.25;5080050;28;20036;-84
2022/08/06 02:10:35;;;;;;;7.40;4.10;;;;;;;10.37;88.23;102497.97;5063644;28;20036;-84
2022/08/06 02:13:03;;;;;;;5.27;3.57;;;;;;;10.33;88.25;102492.00;5065855;28;20089;-85
2022/08/06 02:15:30;;;;;;;8.07;4.13;;;;;;;10.31;88.41;102505.72;5064855;28;20063;-84
2022/08/06 02:17:59;;;;;;;7.83;3.93;;;;;;;10.35;88.41;102506.28;5063872;28;20192;-84
2022/08/06 02:20:36;;;;;;;7.23;3.97;;;;;;;10.42;88.88;102501.84;5070763;28;20760;-84
2022/08/06 02:23:04;;;;;;;6.83;3.93;;;;;;;10.51;88.67;102505.41;5072425;28;20039;-85
2022/08/06 02:25:31;;;;;;;8.77;3.87;;;;;;;10.33;88.63;102507.41;5064632;28;20039;-84
2022/08/06 02:27:59;;;;;;;6.47;3.53;;;;;;;10.22;88.59;102503.19;5063417;28;20078;-84
2022/08/06 02:30:27;;;;;;;7.90;3.90;;;;;;;10.25;88.50;102511.84;5064507;28;20040;-84
2022/08/06 02:32:53;;;;;;;6.13;3.60;;;;;;;10.18;88.37;102513.50;5062822;28;21493;-84
2022/08/06 02:35:18;;;;;;;7.30;3.83;;;;;;;10.14;88.39;102509.44;5063628;28;20040;-84
2022/08/06 02:38:01;;;;;;;6.67;3.73;;;;;;;10.17;89.08;102502.84;5065497;28;20543;-84
2022/08/06 02:40:53;;;;;;;5.97;4.23;;;;;;;10.14;89.34;102504.00;5063110;28;20036;-84
2022/08/06 02:43:36;;;;;;;5.77;3.93;;;;;;;10.09;89.44;102511.78;5065926;28;20074;-85
2022/08/06 02:46:14;;;;;;;5.53;3.90;;;;;;;10.05;90.15;102499.59;5065099;28;20056;-85
2022/08/06 02:48:49;;;;;;;6.57;4.07;;;;;;;9.99;90.04;102501.13;5065026;28;20107;-84
2022/08/06 02:51:24;;;;;;;6.80;4.07;;;;;;;9.95;89.83;102500.63;5064180;28;20036;-85
2022/08/06 02:54:07;;;;;;;7.93;4.17;;;;;;;10.06;90.14;102506.72;5063679;28;20515;-84
2022/08/06 02:56:37;;;;;;;6.27;3.87;;;;;;;9.99;90.01;102506.53;5064229;28;20558;-85
2022/08/06 02:59:04;;;;;;;6.70;3.80;;;;;;;9.97;89.73;102504.00;5065495;28;20644;-84
2022/08/06 03:01:33;;;;;;;6.43;3.93;;;;;;;10.03;89.60;102515.19;5064008;28;20185;-84
2022/08/06 03:04:01;;;;;;;10.87;4.10;;;;;;;9.96;89.86;102521.25;5064854;28;20035;-84
2022/08/06 03:06:30;;;;;;;6.37;3.73;;;;;;;9.92;89.60;102511.78;5065137;28;20033;-84
2022/08/06 03:08:57;;;;;;;7.70;3.90;;;;;;;9.95;90.12;102511.47;5062468;28;20048;-85
2022/08/06 03:11:25;;;;;;;7.30;4.20;;;;;;;9.88;91.03;102520.41;5067061;28;20032;-84
2022/08/06 03:13:52;;;;;;;7.17;4.43;;;;;;;9.90;91.53;102521.06;5069341;28;20688;-84
2022/08/06 03:16:19;;;;;;;6.97;3.67;;;;;;;9.84;91.85;102509.06;5068108;28;20029;-84
2022/08/06 03:18:45;;;;;;;6.60;4.47;;;;;;;9.90;91.82;102527.34;5068602;28;20496;-84
2022/08/06 03:21:12;;;;;;;6.23;3.70;;;;;;;9.84;92.08;102522.59;5067564;28;20443;-84
2022/08/06 03:23:39;;;;;;;7.43;4.00;;;;;;;10.04;92.34;102528.56;5058852;28;20032;-84
2022/08/06 03:26:07;;;;;;;6.10;4.00;;;;;;;9.86;92.00;102517.88;5067858;28;20093;-85
2022/08/06 03:28:34;;;;;;;6.50;4.00;;;;;;;9.97;91.90;102531.09;5067035;28;20131;-85
2022/08/06 03:31:01;;;;;;;8.13;4.30;;;;;;;9.88;92.35;102520.41;5068246;28;20081;-84
2022/08/06 03:33:27;;;;;;;4.70;4.07;;;;;;;9.91;92.81;102526.34;5067159;28;20040;-85
2022/08/06 03:35:55;;;;;;;6.67;4.23;;;;;;;9.83;92.88;102523.59;5067389;28;20383;-84
2022/08/06 03:38:23;;;;;;;8.60;4.30;;;;;;;9.89;93.01;102533.78;5073326;28;20476;-84
2022/08/06 03:40:49;;;;;;;6.57;4.40;;;;;;;9.83;92.65;102523.59;5066837;28;20025;-84
2022/08/06 03:43:16;;;;;;;6.37;4.10;;;;;;;9.86;92.46;102531.41;5067729;28;20137;-86
2022/08/06 03:45:50;;;;;;;6.27;4.30;;;;;;;9.83;92.72;102536.28;5067649;28;20035;-84
2022/08/06 03:48:20;;;;;;;7.13;4.17;;;;;;;9.87;91.87;102533.06;5067417;28;20124;-84
2022/08/06 03:51:08;;;;;;;7.63;4.20;;;;;;;9.95;91.44;102537.69;5072437;28;20469;-84
2022/08/06 03:53:36;;;;;;;7.67;4.27;;;;;;;9.90;91.42;102534.63;5067336;28;20054;-84
2022/08/06 03:59:27;;;;;;;7.27;4.23;;;;;;;9.80;91.21;102549.16;5067867;28;20522;-84
2022/08/06 04:01:53;;;;;;;4.50;4.10;;;;;;;9.79;90.87;102544.75;5065335;28;20476;-85
2022/08/06 04:04:20;;;;;;;5.73;3.90;;;;;;;9.82;91.01;102548.13;5066441;28;20033;-85
2022/08/06 04:06:46;;;;;;;8.67;4.33;;;;;;;9.85;90.25;102562.19;5065635;28;20044;-84
2022/08/06 04:09:12;;;;;;;7.83;4.30;;;;;;;9.84;91.03;102555.06;5067124;28;20045;-85
2022/08/06 04:11:38;;;;;;;10.10;4.20;;;;;;;9.80;91.21;102556.41;5065208;28;20213;-85
2022/08/06 04:14:05;;;;;;;7.73;4.57;;;;;;;9.75;91.42;102559.63;5048812;28;20036;-84
2022/08/06 04:16:31;;;;;;;5.60;3.93;;;;;;;9.77;91.40;102568.41;5067246;28;20058;-84
2022/08/06 04:18:59;;;;;;;7.47;4.10;;;;;;;9.69;91.13;102559.44;5066940;28;20490;-84
2022/08/06 04:21:25;;;;;;;8.33;4.40;;;;;;;9.66;91.34;102562.47;5065158;28;21087;-84
2022/08/06 04:28:05;;;;;;;6.80;4.00;;;;;;;9.83;91.30;102571.50;5022039;23;20589;-84
2022/08/06 04:30:32;;;;;;;6.55;4.00;;;;;;;9.73;90.93;102571.63;5009227;28;20042;-84
2022/08/06 04:33:01;;;;;;;7.47;4.40;;;;;;;9.67;90.96;102567.72;5004696;28;21452;-84
2022/08/06 04:35:28;;;;;;;5.03;4.20;;;;;;;9.80;91.13;102583.50;5005349;28;20094;-84
2022/08/06 04:38:31;;;;;;;7.80;4.33;;;;;;;9.81;91.55;102579.78;5006286;28;20030;-84
2022/08/06 04:40:57;;;;;;;6.33;4.13;;;;;;;9.72;91.28;102573.47;5006479;28;20126;-85
2022/08/06 04:43:22;;;;;;;6.37;3.93;;;;;;;9.75;91.27;102581.28;5005744;28;20156;-84
2022/08/06 04:45:49;;;;;;;6.10;4.13;;;;;;;9.87;91.43;102578.28;5006509;28;20030;-84
2022/08/06 04:48:16;;;;;;;8.20;4.10;;;;;;;9.84;91.52;102581.31;4988309;28;20052;-85
2022/08/06 04:50:41;;;;;;;8.20;4.43;;;;;;;9.91;91.42;102585.91;4988105;28;20040;-84
2022/08/06 04:53:13;;;;;;;6.17;4.23;;;;;;;9.90;91.71;102589.63;4988052;28;20044;-85
2022/08/06 04:55:40;;;;;;;5.90;4.70;;;;;;;9.88;92.13;102591.63;4994981;28;20038;-85
2022/08/06 04:58:08;;;;;;;8.57;4.50;;;;;;;9.94;92.55;102593.69;5006125;28;20037;-84
2022/08/06 05:00:36;;;;;;;8.60;5.07;;;;;;;9.95;92.89;102597.25;5003386;28;20042;-84
2022/08/06 05:03:02;;;;;;;7.33;4.67;;;;;;;9.95;93.01;102597.25;5005218;28;20044;-84
2022/08/06 05:05:30;;;;;;;7.03;4.97;;;;;;;10.02;93.41;102603.69;5005605;28;20517;-85
2022/08/06 05:07:58;;;;;;;8.90;4.80;;;;;;;10.02;93.57;102592.03;5004973;28;20048;-84
2022/08/06 05:10:34;;;;;;;6.53;4.80;;;;;;;10.10;94.13;102597.44;5006086;28;20053;-85
2022/08/06 05:13:02;;;;;;;6.00;4.40;;;;;;;10.14;94.41;102602.41;5005858;28;20095;-84
2022/08/06 05:15:35;;;;;;;7.37;4.50;;;;;;;10.19;94.53;102599.19;5005478;28;20149;-84
2022/08/06 05:18:07;;;;;;;5.10;4.43;;;;;;;10.25;95.05;102587.69;5004538;28;20080;-84
2022/08/06 05:20:35;;;;;;;8.30;4.80;;;;;;;10.32;95.38;102595.97;5005804;28;20033;-84
2022/08/06 05:23:06;;;;;;;14.80;4.87;;;;;;;10.45;95.11;102611.78;5004215;28;20072;-84
2022/08/06 05:25:35;;;;;;;13.03;5.00;;;;;;;10.56;95.20;102614.16;4995388;28;20041;-85
2022/08/06 05:28:01;;;;;;;5.83;4.43;;;;;;;10.71;95.86;102613.50;5004541;28;20143;-84
2022/08/06 05:30:26;;;;;;;9.73;4.63;;;;;;;10.79;95.64;102621.63;4986660;28;20128;-85
2022/08/06 05:32:51;;;;;;;10.17;4.70;;;;;;;10.91;95.84;102617.53;5004498;28;20041;-85
2022/08/06 05:35:17;;;;;;;7.80;5.33;;;;;;;10.96;96.47;102612.47;5005677;28;20038;-84
2022/08/06 05:37:42;;;;;;;9.17;5.30;;;;;;;11.14;97.17;102616.84;5005372;28;20589;-84
2022/08/06 05:40:08;;;;;;;8.07;4.80;;;;;;;11.23;95.96;102628.53;5004217;28;20390;-84
2022/08/06 05:42:34;;;;;;;8.07;4.77;;;;;;;11.41;96.84;102636.44;4993581;28;20630;-84
2022/08/06 05:44:59;;;;;;;9.20;5.37;;;;;;;11.45;96.47;102621.50;5003854;28;20037;-84
2022/08/06 05:47:28;;;;;;;10.60;4.83;;;;;;;11.60;95.58;102636.06;4986586;28;20057;-84
2022/08/06 05:50:18;;;;;;;10.43;4.77;;;;;;;11.76;95.09;102634.31;5005016;28;20424;-84
2022/08/06 05:53:09;;;;;;;8.83;4.60;;;;;;;11.89;94.77;102633.75;5003433;28;20104;-84
2022/08/06 05:55:41;;;;;;;12.27;4.47;;;;;;;12.06;94.76;102631.81;5004426;28;20532;-83
2022/08/06 05:58:17;;;;;;;8.20;4.10;;;;;;;12.17;93.79;102631.41;4994482;28;20045;-83
2022/08/06 06:00:43;;;;;;;7.37;3.70;;;;;;;12.33;93.27;102635.91;5005462;28;20041;-85
2022/08/06 06:03:12;;;;;;;8.50;3.80;;;;;;;12.44;92.43;102637.38;5004323;28;20389;-83
2022/08/06 06:05:39;;;;;;;11.80;4.33;;;;;;;12.49;92.75;102629.53;4986717;28;20056;-84
2022/08/06 06:08:06;;;;;;;9.53;4.10;;;;;;;12.64;92.86;102637.75;4986323;28;20124;-84
2022/08/06 06:10:33;;;;;;;8.37;3.80;;;;;;;12.71;92.89;102637.88;5004255;28;20960;-84
2022/08/06 06:13:01;;;;;;;9.23;3.93;;;;;;;12.83;91.95;102636.41;4986157;28;20029;-84
2022/08/06 06:15:27;;;;;;;7.93;4.07;;;;;;;12.93;91.50;102642.44;5003864;28;20621;-83
2022/08/06 06:18:39;;;;;;;10.90;4.20;;;;;;;13.03;91.10;102641.31;5004295;28;20034;-85
2022/08/06 06:21:10;;;;;;;7.57;3.90;;;;;;;13.08;90.72;102647.94;4925936;29;20043;-86
2022/08/06 06:23:49;;;;;;;9.00;3.90;;;;;;;13.20;90.89;102645.59;4926777;28;20495;-85
2022/08/06 06:26:32;;;;;;;11.63;4.20;;;;;;;13.33;90.29;102647.69;4975983;28;20057;-84
2022/08/06 06:29:12;;;;;;;9.33;3.90;;;;;;;13.44;89.91;102649.13;5004909;28;20064;-85
2022/08/06 06:31:47;;;;;;;10.97;4.40;;;;;;;13.61;89.98;102647.91;5004020;28;20087;-86
2022/08/06 06:34:19;;;;;;;10.83;3.93;;;;;;;13.69;89.23;102646.97;5001463;28;20033;-85
2022/08/06 06:37:03;;;;;;;12.20;3.53;;;;;;;13.82;88.26;102657.19;5001406;28;20041;-85
2022/08/06 06:40:05;;;;;;;8.48;3.63;;;;;;;13.92;88.63;102652.28;5001334;28;20555;-85
2022/08/06 06:42:51;;;;;;;7.27;3.40;;;;;;;14.06;88.07;102647.00;4941513;28;20604;-85
2022/08/06 06:45:30;;;;;;;8.67;3.50;;;;;;;14.21;87.78;102646.97;5004931;28;20797;-84
2022/08/06 06:48:09;;;;;;;8.13;3.23;;;;;;;14.38;87.20;102651.16;5005268;28;20029;-86
2022/08/06 06:50:41;;;;;;;6.67;2.90;;;;;;;14.48;84.37;102656.28;5005783;28;20033;-85
2022/08/06 06:53:10;;;;;;;8.67;2.93;;;;;;;14.68;84.24;102659.25;5005723;28;20039;-84
2022/08/06 06:55:39;;;;;;;8.13;2.67;;;;;;;14.82;82.62;102673.88;4995637;28;20152;-85
2022/08/06 06:58:27;;;;;;;6.37;3.03;;;;;;;14.95;82.26;102671.25;5005502;28;20421;-85
2022/08/06 07:00:55;;;;;;;9.13;2.73;;;;;;;15.10;80.62;102664.88;5004768;28;20036;-84
2022/08/06 07:03:22;;;;;;;7.90;2.53;;;;;;;15.19;79.46;102669.16;5004876;28;20058;-86
2022/08/06 07:05:50;;;;;;;8.57;2.50;;;;;;;15.24;78.22;102672.13;5004940;28;20038;-83
2022/08/06 07:08:20;;;;;;;5.83;2.20;;;;;;;15.36;77.95;102665.06;4990728;28;20133;-84
2022/08/06 07:10:46;;;;;;;7.57;2.90;;;;;;;15.45;78.71;102673.97;5004508;28;20469;-84
2022/08/06 07:13:13;;;;;;;4.83;2.93;;;;;;;15.60;78.41;102670.25;4990273;28;20045;-85
2022/08/06 07:15:40;;;;;;;8.70;2.83;;;;;;;15.66;77.68;102666.72;5004124;28;20053;-86
2022/08/06 07:18:07;;;;;;;9.17;3.13;;;;;;;15.75;78.52;102665.53;5004407;28;20490;-85
2022/08/06 07:20:34;;;;;;;5.67;2.20;;;;;;;15.95;76.73;102673.88;5004842;28;20053;-85
2022/08/06 07:23:02;;;;;;;4.93;2.20;;;;;;;16.01;73.95;102667.56;5004191;28;20499;-86
2022/08/06 07:25:28;;;;;;;5.90;1.93;;;;;;;16.19;74.87;102671.63;5004390;28;20096;-85
2022/08/06 07:27:54;;;;;;;6.63;2.23;;;;;;;16.23;72.87;102669.34;4986571;28;20045;-85
2022/08/06 07:30:20;;;;;;;5.10;2.10;;;;;;;16.43;73.96;102669.38;5004524;28;20042;-86
2022/08/06 07:32:48;;;;;;;8.97;2.40;;;;;;;16.55;72.31;102673.22;5004614;28;20037;-85
2022/08/06 07:35:16;;;;;;;4.33;1.93;;;;;;;16.80;71.50;102680.84;5004707;28;20496;-86
2022/08/06 07:37:48;;;;;;;6.33;2.47;;;;;;;16.81;71.80;102674.28;5003434;28;20086;-84
2022/08/06 07:40:42;;;;;;;4.77;2.20;;;;;;;17.05;72.32;102681.06;5004458;28;20590;-85
2022/08/06 07:43:15;;;;;;;6.50;2.40;;;;;;;17.22;69.84;102689.72;5002247;28;20053;-87
2022/08/06 07:46:02;;;;;;;5.47;2.00;;;;;;;17.37;70.45;102684.03;5004042;28;20108;-86
2022/08/06 07:48:49;;;;;;;7.47;1.80;;;;;;;17.48;69.35;102686.09;5001009;28;20040;-83
2022/08/06 07:51:15;;;;;;;4.50;1.50;;;;;;;17.57;66.60;102686.75;5002891;28;20038;-86
2022/08/06 07:53:42;;;;;;;4.43;1.77;;;;;;;17.59;63.15;102697.50;5003625;28;20065;-82
2022/08/06 07:56:09;;;;;;;3.93;1.20;;;;;;;17.67;64.24;102698.09;4985723;28;21761;-84
2022/08/06 07:58:36;;;;;;;3.03;1.53;;;;;;;17.66;64.68;102698.31;5003874;28;20121;-83
2022/08/06 08:01:02;;;;;;;3.93;1.40;;;;;;;17.80;64.05;102704.59;4984345;28;20499;-83
2022/08/06 08:06:18;;;;;;;4.03;1.50;;;;;;;17.79;63.45;102701.03;5003927;28;20084;-84
2022/08/06 08:08:50;;;;;;;4.17;1.37;;;;;;;18.11;61.91;102708.53;5003414;28;20033;-79
2022/08/06 08:11:17;;;;;;;2.97;1.30;;;;;;;18.19;61.03;102705.56;5007187;28;20033;-85
2022/08/06 08:13:42;;;;;;;2.17;1.50;;;;;;;18.12;59.81;102707.50;5006577;28;21422;-84
2022/08/06 08:16:11;;;;;;;4.47;1.63;;;;;;;18.23;60.90;102704.06;5007609;28;20045;-82
2022/08/06 08:18:39;;;;;;;5.40;1.63;;;;;;;18.32;60.28;102704.66;5006521;28;20445;-82
2022/08/06 08:21:05;;;;;;;4.03;1.50;;;;;;;18.27;58.59;102707.22;5006033;28;20033;-81
2022/08/06 08:23:31;;;;;;;4.97;1.90;;;;;;;18.20;59.31;102701.75;5006451;28;20049;-83
2022/08/06 08:25:59;;;;;;;3.78;1.77;;;;;;;18.47;57.84;102713.44;4987911;28;20057;-84
2022/08/06 08:28:24;;;;;;;4.70;1.80;;;;;;;18.83;59.30;102716.59;4988770;28;20140;-82
2022/08/06 08:30:50;;;;;;;3.25;1.50;;;;;;;18.79;59.04;102712.63;4995938;28;20053;-82
2022/08/06 08:33:19;;;;;;;3.03;1.33;;;;;;;18.73;59.66;102709.69;4983251;28;20069;-82
2022/08/06 08:35:46;;;;;;;6.32;1.30;;;;;;;19.08;58.97;102711.16;4988183;28;20725;-84
2022/08/06 08:38:11;;;;;;;5.82;1.40;;;;;;;19.54;58.78;102712.66;4987923;28;20049;-82
2022/08/06 08:40:38;;;;;;;3.00;1.33;;;;;;;19.97;57.02;102716.44;4987785;28;20041;-82
2022/08/06 08:43:06;;;;;;;3.40;1.20;;;;;;;19.91;54.49;102717.38;5003139;28;20500;-84
2022/08/06 08:45:33;;;;;;;4.65;1.55;;;;;;;19.73;53.82;102715.41;4991642;28;20076;-83
2022/08/06 08:48:00;;;;;;;3.67;0.93;;;;;;;19.74;53.36;102711.59;4987365;28;20029;-83
2022/08/06 08:50:29;;;;;;;5.43;1.58;;;;;;;20.09;53.26;102722.03;5002638;28;20042;-83
2022/08/06 08:53:09;;;;;;;4.95;1.20;;;;;;;20.54;53.51;102715.31;5002681;28;20038;-82
2022/08/06 08:55:34;;;;;;;4.25;1.20;;;;;;;20.58;51.38;102722.03;5002023;28;20515;-83
2022/08/06 08:58:01;;;;;;;4.75;1.10;;;;;;;20.42;50.19;102718.00;5002908;28;20046;-81
2022/08/06 09:00:27;;;;;;;1.90;0.80;;;;;;;20.28;49.77;102720.09;4991500;28;20591;-81
2022/08/06 09:03:03;;;;;;;4.43;0.95;;;;;;;20.41;50.75;102719.91;5001803;28;20044;-82
2022/08/06 09:05:30;;;;;;;4.32;0.90;;;;;;;20.63;50.44;102729.56;4991084;28;20918;-83
2022/08/06 09:07:57;;;;;;;4.50;1.00;;;;;;;20.59;47.68;102731.97;5002419;28;20080;-82
2022/08/06 09:10:24;;;;;;;3.25;1.00;;;;;;;21.17;49.00;102724.09;4985109;28;20034;-82
2022/08/06 09:12:50;;;;;;;3.33;0.90;;;;;;;21.72;46.04;102726.53;5002536;28;20029;-83
2022/08/06 09:15:17;;;;;;;2.97;1.00;;;;;;;22.17;45.43;102738.00;4998859;28;20504;-82
2022/08/06 09:17:42;;;;;;;2.65;0.70;;;;;;;22.56;43.60;102729.94;5000427;28;20034;-82
2022/08/06 09:20:08;;;;;;;3.58;1.00;;;;;;;22.82;43.51;102744.22;4999927;28;20076;-82
2022/08/06 09:22:33;;;;;;;5.10;0.80;;;;;;;22.54;43.04;102734.88;4971464;28;20117;-82
2022/08/06 09:25:00;;;;;;;2.72;0.60;;;;;;;22.45;41.19;102737.19;5001835;28;20432;-82
2022/08/06 09:27:33;;;;;;;2.70;0.68;;;;;;;22.52;44.85;102739.78;4985239;28;20048;-81
2022/08/06 09:30:02;;;;;;;2.67;1.00;;;;;;;22.35;42.17;102735.06;5001430;28;20433;-83
2022/08/06 09:32:45;;;;;;;1.95;0.80;;;;;;;22.95;43.87;102732.84;5001858;28;20051;-83
2022/08/06 09:35:19;;;;;;;2.30;0.90;;;;;;;23.12;40.09;102732.03;4987642;28;20041;-82
2022/08/06 09:37:45;;;;;;;2.55;0.90;;;;;;;23.37;40.15;102732.47;5001719;28;20037;-83
2022/08/06 09:40:13;;;;;;;2.88;1.17;;;;;;;23.83;41.41;102731.47;5000625;28;20508;-82
2022/08/06 09:42:48;;;;;;;2.42;1.00;;;;;;;24.00;40.30;102731.44;5001772;28;20409;-82
2022/08/06 09:45:16;;;;;;;2.72;1.05;;;;;;;24.16;39.90;102732.47;4999384;28;20045;-82
2022/08/06 09:47:41;;;;;;;2.05;0.90;;;;;;;24.52;37.90;102738.41;5000982;28;20044;-80
2022/08/06 09:50:08;;;;;;;2.60;1.10;;;;;;;24.17;37.41;102731.38;5000660;28;20754;-82
2022/08/06 09:52:33;;;;;;;2.70;0.90;;;;;;;24.90;37.31;102733.81;5003236;28;20053;-82
2022/08/06 09:54:59;;;;;;;1.48;0.60;;;;;;;25.23;37.06;102738.28;5002137;28;20064;-82
2022/08/06 09:57:27;;;;;;;1.80;0.75;;;;;;;25.31;37.89;102745.28;5001705;28;20123;-83
2022/08/06 09:59:52;;;;;;;2.13;1.02;;;;;;;25.09;37.31;102742.59;5002472;28;20583;-83
2022/08/06 10:02:20;;;;;;;2.55;0.90;;;;;;;24.40;37.51;102741.34;5002079;28;20034;-82
2022/08/06 10:04:48;;;;;;;1.70;1.00;;;;;;;24.50;37.08;102746.97;5000115;28;20042;-82
2022/08/06 10:07:15;;;;;;;6.28;1.20;;;;;;;24.10;36.59;102742.66;5002016;28;20076;-82
2022/08/06 10:09:55;;;;;;;4.35;1.27;;;;;;;24.49;39.04;102738.94;5000999;28;20060;-81
2022/08/06 10:12:22;;;;;;;3.88;0.93;;;;;;;25.01;39.81;102738.38;4998185;28;20588;-83
2022/08/06 10:14:48;;;;;;;1.95;1.02;;;;;;;25.24;37.90;102739.09;5000754;28;20639;-80
2022/08/06 10:17:16;;;;;;;2.72;0.70;;;;;;;25.07;37.16;102742.84;4984555;28;21389;-84
2022/08/06 10:20:03;;;;;;;3.53;1.10;;;;;;;25.20;35.36;102747.13;5000938;28;20061;-83
2022/08/06 10:22:28;;;;;;;3.75;1.15;;;;;;;25.72;38.05;102739.19;5000427;28;20068;-83
2022/08/06 10:24:54;;;;;;;2.63;0.90;;;;;;;25.15;36.87;102729.63;5001220;28;20038;-82
2022/08/06 10:27:23;;;;;;;3.20;1.27;;;;;;;25.06;36.69;102719.00;4993772;28;20502;-81
2022/08/06 10:29:51;;;;;;;3.13;0.88;;;;;;;25.76;37.90;102726.44;4984898;28;20053;-81
2022/08/06 10:32:25;;;;;;;2.70;0.93;;;;;;;25.30;36.90;102726.13;4983312;28;20057;-82
2022/08/06 10:34:53;;;;;;;3.65;0.80;;;;;;;25.55;35.27;102717.97;4983761;28;20042;-81
2022/08/06 10:37:19;;;;;;;2.30;0.90;;;;;;;24.90;35.42;102719.97;4966870;28;20104;-82
2022/08/06 10:39:54;;;;;;;1.52;0.73;;;;;;;24.70;35.91;102718.69;4968637;28;20932;-81
2022/08/06 10:42:21;;;;;;;2.38;1.02;;;;;;;24.38;35.44;102708.34;4984679;28;20034;-82
2022/08/06 10:44:48;;;;;;;2.78;0.82;;;;;;;24.81;36.93;102711.31;4984173;28;20714;-81
2022/08/06 10:47:14;;;;;;;4.03;0.90;;;;;;;24.84;38.14;102704.41;4985144;28;20040;-81
2022/08/06 10:49:39;;;;;;;1.15;0.77;;;;;;;25.54;36.80;102704.38;4985092;28;20038;-82
2022/08/06 10:52:05;;;;;;;0.95;0.65;;;;;;;25.56;34.66;102707.72;4984992;28;20050;-81
2022/08/06 10:54:31;;;;;;;4.05;1.10;;;;;;;25.97;33.84;102707.91;4967411;28;20055;-81
2022/08/06 10:56:57;;;;;;;2.10;0.73;;;;;;;26.03;33.89;102706.88;4985310;28;20565;-81
2022/08/06 10:59:22;;;;;;;1.15;0.65;;;;;;;25.92;33.34;102713.44;4951162;28;20435;-82
2022/08/06 11:02:09;;;;;;;2.28;0.73;;;;;;;26.13;33.41;102705.25;4985254;28;20130;-81
2022/08/06 11:04:53;;;;;;;2.17;0.73;;;;;;;26.24;33.59;102704.16;4966818;28;20494;-82
2022/08/06 11:07:54;;;;;;;2.38;0.88;;;;;;;25.91;32.99;102706.25;4984846;28;20286;-83
2022/08/06 11:10:47;;;;;;;2.65;0.75;;;;;;;26.05;32.63;102704.66;4962590;28;20065;-81
2022/08/06 11:13:52;;;;;;;4.53;0.90;;;;;;;26.60;34.85;102699.50;4983848;28;20029;-81
2022/08/06 11:16:28;;;;;;;2.40;0.85;;;;;;;27.05;32.97;102696.19;4964195;28;20046;-81
2022/08/06 11:19:08;;;;;;;2.70;1.15;;;;;;;27.00;33.71;102696.22;4970432;28;20137;-82
2022/08/06 11:21:48;;;;;;;2.00;0.70;;;;;;;27.35;34.27;102702.81;4984692;28;20065;-82
2022/08/06 11:24:15;;;;;;;0.65;0.43;;;;;;;26.52;31.58;102701.97;4984568;28;20034;-83
2022/08/06 11:26:44;;;;;;;2.17;0.75;;;;;;;25.89;34.44;102695.41;4986036;28;20192;-81
2022/08/06 11:29:11;;;;;;;4.35;1.10;;;;;;;24.49;35.16;102700.16;5004120;28;20836;-82
2022/08/06 11:31:45;;;;;;;2.17;0.93;;;;;;;24.43;34.02;102697.31;5005899;28;20041;-83
2022/08/06 11:34:15;;;;;;;0.82;0.47;;;;;;;23.99;32.40;102686.31;4988548;28;20033;-82
2022/08/06 11:36:56;;;;;;;1.92;0.68;;;;;;;24.71;34.98;102687.09;5007601;28;20096;-81
2022/08/06 11:39:24;;;;;;;1.55;0.40;;;;;;;24.94;32.72;102690.59;4990788;28;20037;-81
2022/08/06 11:41:55;;;;;;;3.40;0.73;;;;;;;25.38;34.17;102684.03;5006739;28;21441;-81
2022/08/06 11:44:32;;;;;;;0.85;0.50;;;;;;;25.93;32.84;102685.44;4986186;28;20037;-81
2022/08/06 11:47:12;;;;;;;3.53;0.63;;;;;;;26.07;31.89;102680.22;5005494;28;20292;-81
2022/08/06 11:49:44;;;;;;;1.20;0.73;;;;;;;25.85;31.93;102674.00;5003280;28;20052;-82
2022/08/06 11:52:32;;;;;;;0.85;0.47;;;;;;;26.22;33.20;102676.66;5003845;28;20552;-82